createdAt,value
2022-10-23T00:01:40.301Z,11.93
2022-10-23T00:04:19.562Z,11.57
2022-10-23T00:06:48.657Z,11.93
2022-10-23T00:09:19.593Z,13.82
2022-10-23T00:11:48.333Z,13.90
2022-10-23T00:14:18.268Z,13.27
2022-10-23T00:16:46.061Z,13.07
2022-10-23T00:19:13.504Z,15.47
2022-10-23T00:21:45.207Z,13.48
2022-10-23T00:24:12.753Z,11.55
2022-10-23T00:26:40.886Z,14.15
2022-10-23T00:29:09.790Z,13.43
2022-10-23T00:31:38.604Z,12.67
2022-10-23T00:34:08.737Z,13.30
2022-10-23T00:36:38.205Z,13.80
2022-10-23T00:39:09.031Z,13.60
2022-10-23T00:41:50.295Z,12.50
2022-10-23T00:44:20.448Z,13.20
2022-10-23T00:46:48.059Z,13.70
2022-10-23T00:49:16.388Z,12.50
2022-10-23T00:51:48.140Z,13.93
2022-10-23T00:54:23.868Z,13.15
2022-10-23T00:56:58.057Z,13.37
2022-10-23T00:59:25.717Z,13.60
2022-10-23T01:01:53.458Z,13.13
2022-10-23T01:04:21.908Z,11.43
2022-10-23T01:07:31.386Z,13.68
2022-10-23T01:10:23.781Z,13.00
2022-10-23T01:13:02.587Z,12.98
2022-10-23T01:15:38.141Z,12.32
2022-10-23T01:18:13.446Z,11.93
2022-10-23T01:20:55.090Z,10.30
2022-10-23T01:23:59.846Z,11.77
2022-10-23T01:26:36.150Z,11.93
2022-10-23T01:29:23.863Z,13.68
2022-10-23T01:32:13.661Z,11.80
2022-10-23T01:34:57.617Z,11.80
2022-10-23T01:37:31.496Z,11.27
2022-10-23T01:40:05.689Z,12.80
2022-10-23T01:42:39.008Z,13.75
2022-10-23T01:45:45.222Z,11.02
2022-10-23T01:48:22.168Z,14.48
2022-10-23T01:50:51.926Z,12.83
2022-10-23T01:53:20.777Z,12.45
2022-10-23T01:55:50.148Z,12.68
2022-10-23T01:58:24.998Z,11.68
2022-10-23T02:00:56.079Z,13.68
2022-10-23T02:03:24.921Z,13.00
2022-10-23T02:05:52.605Z,13.65
2022-10-23T02:08:20.197Z,13.95
2022-10-23T02:13:37.737Z,11.90
2022-10-23T02:16:19.707Z,12.53
2022-10-23T02:19:06.679Z,16.23
2022-10-23T02:21:55.465Z,15.63
2022-10-23T02:24:52.238Z,15.10
2022-10-23T02:27:51.142Z,16.75
2022-10-23T02:30:20.692Z,13.73
2022-10-23T02:33:11.167Z,15.57
2022-10-23T02:35:38.839Z,14.90
2022-10-23T02:38:34.581Z,15.77
2022-10-23T02:41:27.738Z,14.93
2022-10-23T02:44:13.683Z,15.50
2022-10-23T02:46:46.919Z,13.30
2022-10-23T02:49:42.229Z,14.30
2022-10-23T02:52:22.124Z,16.92
2022-10-23T02:54:49.501Z,14.35
2022-10-23T02:57:25.373Z,12.20
2022-10-23T03:00:05.246Z,14.23
2022-10-23T03:02:59.346Z,13.52
2022-10-23T03:05:39.042Z,14.98
2022-10-23T03:08:09.834Z,13.82
2022-10-23T03:10:37.336Z,17.60
2022-10-23T03:13:07.202Z,17.60
2022-10-23T03:15:41.144Z,13.88
2022-10-23T03:18:12.695Z,13.02
2022-10-23T03:20:41.965Z,16.05
2022-10-23T03:23:13.307Z,15.93
2022-10-23T03:25:40.925Z,13.00
2022-10-23T03:28:08.466Z,16.90
2022-10-23T03:30:36.588Z,14.75
2022-10-23T03:33:04.155Z,12.95
2022-10-23T03:35:34.750Z,13.20
2022-10-23T03:38:02.403Z,15.13
2022-10-23T03:40:29.907Z,16.75
2022-10-23T03:42:57.458Z,13.27
2022-10-23T03:45:25.049Z,16.33
2022-10-23T03:47:52.542Z,13.97
2022-10-23T03:50:20.215Z,18.58
2022-10-23T03:52:48.351Z,14.90
2022-10-23T03:55:15.888Z,14.25
2022-10-23T03:57:43.353Z,15.77
2022-10-23T04:00:11.439Z,12.83
2022-10-23T04:02:45.253Z,15.50
2022-10-23T04:05:13.301Z,14.38
2022-10-23T04:07:49.199Z,14.52
2022-10-23T04:10:17.908Z,15.52
2022-10-23T04:12:46.168Z,16.87
2022-10-23T04:15:13.743Z,14.48
2022-10-23T04:17:44.531Z,14.77
2022-10-23T04:20:12.864Z,14.23
2022-10-23T04:22:40.596Z,14.25
2022-10-23T04:25:11.354Z,13.13
2022-10-23T04:27:39.609Z,14.38
2022-10-23T04:30:07.893Z,14.57
2022-10-23T04:32:35.491Z,16.45
2022-10-23T04:35:05.305Z,16.52
2022-10-23T04:37:32.929Z,17.37
2022-10-23T04:40:01.317Z,19.13
2022-10-23T04:42:30.416Z,20.25
2022-10-23T04:45:00.385Z,19.08
2022-10-23T04:47:28.773Z,24.42
2022-10-23T04:49:58.776Z,16.83
2022-10-23T04:52:45.092Z,17.65
2022-10-23T04:55:39.275Z,18.25
2022-10-23T04:58:17.178Z,17.13
2022-10-23T05:00:47.251Z,15.82
2022-10-23T05:03:22.470Z,16.33
2022-10-23T05:05:54.737Z,16.67
2022-10-23T05:08:28.226Z,16.67
2022-10-23T05:11:21.617Z,19.02
2022-10-23T05:13:51.127Z,17.13
2022-10-23T05:16:50.724Z,16.33
2022-10-23T05:19:26.775Z,15.43
2022-10-23T05:21:56.271Z,16.13
2022-10-23T05:24:33.342Z,16.63
2022-10-23T05:27:03.173Z,14.32
2022-10-23T05:29:32.135Z,16.70
2022-10-23T05:32:05.690Z,15.18
2022-10-23T05:34:36.860Z,13.40
2022-10-23T05:37:08.669Z,14.75
2022-10-23T05:39:38.558Z,12.65
2022-10-23T05:42:10.905Z,15.73
2022-10-23T05:44:39.461Z,13.00
2022-10-23T05:47:32.111Z,12.50
2022-10-23T05:50:12.994Z,12.57
2022-10-23T05:52:59.889Z,11.20
2022-10-23T05:55:47.360Z,10.03
2022-10-23T05:58:38.102Z,11.75
2022-10-23T06:01:31.275Z,11.10
2022-10-23T06:04:04.277Z,10.40
2022-10-23T06:06:57.278Z,10.18
2022-10-23T06:09:25.221Z,12.80
2022-10-23T06:11:57.430Z,9.55
2022-10-23T06:14:24.936Z,13.60
2022-10-23T06:16:53.001Z,11.40
2022-10-23T06:19:21.383Z,12.88
2022-10-23T06:21:53.153Z,10.27
2022-10-23T06:24:25.419Z,11.43
2022-10-23T06:26:57.242Z,10.43
2022-10-23T06:29:45.539Z,9.98
2022-10-23T06:32:13.475Z,10.15
2022-10-23T06:34:45.951Z,9.60
2022-10-23T06:37:13.458Z,7.75
2022-10-23T06:39:56.050Z,8.15
2022-10-23T06:42:35.758Z,9.05
2022-10-23T06:45:41.537Z,9.23
2022-10-23T06:48:15.743Z,8.63
2022-10-23T06:51:06.405Z,8.77
2022-10-23T06:53:39.729Z,9.40
2022-10-23T06:56:18.918Z,8.77
2022-10-23T06:58:46.586Z,8.95
2022-10-23T07:01:16.772Z,7.63
2022-10-23T07:03:45.769Z,8.27
2022-10-23T07:06:15.906Z,8.18
2022-10-23T07:08:43.666Z,9.52
2022-10-23T07:11:31.059Z,7.32
2022-10-23T07:13:58.994Z,14.70
2022-10-23T07:16:26.443Z,8.55
2022-10-23T07:18:59.802Z,8.15
2022-10-23T07:21:29.966Z,11.20
2022-10-23T07:24:09.009Z,10.15
2022-10-23T07:26:41.715Z,10.97
2022-10-23T07:29:09.587Z,8.98
2022-10-23T07:31:37.241Z,10.73
2022-10-23T07:34:25.343Z,9.57
2022-10-23T07:37:11.074Z,9.50
2022-10-23T07:39:38.675Z,8.27
2022-10-23T07:42:06.219Z,9.13
2022-10-23T07:44:35.047Z,9.20
2022-10-23T07:47:02.522Z,10.23
2022-10-23T07:49:31.026Z,9.80
2022-10-23T07:51:59.095Z,11.83
2022-10-23T07:54:35.327Z,10.20
2022-10-23T07:57:20.526Z,8.75
2022-10-23T07:59:56.634Z,8.18
2022-10-23T08:02:25.330Z,9.70
2022-10-23T08:04:53.603Z,10.33
2022-10-23T08:07:27.859Z,11.05
2022-10-23T08:10:00.610Z,9.52
2022-10-23T08:12:33.144Z,8.25
2022-10-23T08:15:00.745Z,8.63
2022-10-23T08:17:39.708Z,8.93
2022-10-23T08:20:14.341Z,11.77
2022-10-23T08:22:44.405Z,8.63
2022-10-23T08:25:14.574Z,9.90
2022-10-23T08:27:42.401Z,9.23
2022-10-23T08:30:10.625Z,10.07
2022-10-23T08:32:38.271Z,10.10
2022-10-23T08:35:06.654Z,9.85
2022-10-23T08:37:34.586Z,8.93
2022-10-23T08:40:04.435Z,10.80
2022-10-23T08:43:14.957Z,10.47
2022-10-23T08:46:08.557Z,10.05
2022-10-23T08:49:41.634Z,10.45
2022-10-23T08:52:14.900Z,9.68
2022-10-23T08:55:17.872Z,8.77
2022-10-23T08:58:15.267Z,9.27
2022-10-23T09:00:44.829Z,9.57
2022-10-23T09:03:13.522Z,8.80
2022-10-23T09:05:55.203Z,10.32
2022-10-23T09:08:34.474Z,9.40
2022-10-23T09:11:12.047Z,8.93
2022-10-23T09:13:55.322Z,12.60
2022-10-23T09:16:22.656Z,9.25
2022-10-23T09:18:50.968Z,7.85
2022-10-23T09:21:18.495Z,9.75
2022-10-23T09:23:45.929Z,7.90
2022-10-23T09:26:16.411Z,6.60
2022-10-23T09:28:50.130Z,8.75
2022-10-23T09:31:19.873Z,7.25
2022-10-23T09:33:58.290Z,7.07
2022-10-23T09:36:29.433Z,7.37
2022-10-23T09:38:59.599Z,8.57
2022-10-23T09:41:30.983Z,7.35
2022-10-23T09:44:21.379Z,8.30
2022-10-23T09:46:54.244Z,7.47
2022-10-23T09:49:27.619Z,7.17
2022-10-23T09:52:02.526Z,10.30
2022-10-23T09:54:33.643Z,8.93
2022-10-23T09:57:20.196Z,12.10
2022-10-23T10:00:00.025Z,7.80
2022-10-23T10:02:36.891Z,8.87
2022-10-23T10:05:39.152Z,8.13
2022-10-23T10:08:51.086Z,8.45
2022-10-23T10:11:28.495Z,10.27
2022-10-23T10:14:05.972Z,8.73
2022-10-23T10:16:33.407Z,9.57
2022-10-23T10:19:13.120Z,7.38
2022-10-23T10:22:09.917Z,7.00
2022-10-23T10:25:03.384Z,13.85
2022-10-23T10:27:53.251Z,8.65
2022-10-23T10:30:25.816Z,10.23
2022-10-23T10:33:06.558Z,8.52
2022-10-23T10:35:55.797Z,8.48
2022-10-23T10:38:47.803Z,8.63
2022-10-23T10:41:40.606Z,7.63
2022-10-23T10:44:46.554Z,8.07
2022-10-23T10:47:21.385Z,11.95
2022-10-23T10:49:56.727Z,11.10
2022-10-23T10:53:13.199Z,8.02
2022-10-23T10:55:47.224Z,8.48
2022-10-23T10:58:25.374Z,7.80
2022-10-23T11:00:59.336Z,9.52
2022-10-23T11:03:34.828Z,7.93
2022-10-23T11:06:10.748Z,7.28
2022-10-23T11:08:56.286Z,9.55
2022-10-23T11:11:33.545Z,8.50
2022-10-23T11:14:02.325Z,9.07
2022-10-23T11:16:40.016Z,8.73
2022-10-23T11:19:26.909Z,7.88
2022-10-23T11:23:16.811Z,7.78
2022-10-23T11:25:38.736Z,9.10
2022-10-23T11:28:15.036Z,7.25
2022-10-23T11:31:08.212Z,8.68
2022-10-23T11:34:21.746Z,8.85
2022-10-23T11:36:56.148Z,7.20
2022-10-23T11:39:32.573Z,7.53
2022-10-23T11:42:07.991Z,7.80
2022-10-23T11:44:37.102Z,7.05
2022-10-23T11:47:25.962Z,6.25
2022-10-23T11:50:08.272Z,8.52
2022-10-23T11:52:45.535Z,7.50
2022-10-23T11:55:21.573Z,8.55
2022-10-23T11:58:07.501Z,9.75
2022-10-23T12:00:40.719Z,8.90
2022-10-23T12:03:20.719Z,5.95
2022-10-23T12:08:32.886Z,8.15
2022-10-23T12:11:00.474Z,5.93
2022-10-23T12:13:39.653Z,9.60
2022-10-23T12:16:08.322Z,7.68
2022-10-23T12:18:56.639Z,7.23
2022-10-23T12:21:28.730Z,6.35
2022-10-23T12:24:14.522Z,6.90
2022-10-23T12:27:06.035Z,6.18
2022-10-23T12:29:56.507Z,7.93
2022-10-23T12:32:33.690Z,8.23
2022-10-23T12:35:49.223Z,7.15
2022-10-23T12:38:22.553Z,8.00
2022-10-23T12:40:56.926Z,6.80
2022-10-23T12:43:36.528Z,8.02
2022-10-23T12:46:17.898Z,7.63
2022-10-23T12:48:50.831Z,6.05
2022-10-23T12:51:25.118Z,6.20
2022-10-23T12:53:52.542Z,6.35
2022-10-23T12:56:20.557Z,8.02
2022-10-23T12:58:52.047Z,6.47
2022-10-23T13:01:28.657Z,7.35
2022-10-23T13:04:13.898Z,7.53
2022-10-23T13:06:41.707Z,7.40
2022-10-23T13:09:20.450Z,7.90
2022-10-23T13:12:09.574Z,5.97
2022-10-23T13:14:57.493Z,6.55
2022-10-23T13:17:38.964Z,8.23
2022-10-23T13:20:18.532Z,6.72
2022-10-23T13:22:48.920Z,6.68
2022-10-23T13:25:25.094Z,6.43
2022-10-23T13:28:03.582Z,7.82
2022-10-23T13:30:33.902Z,7.70
2022-10-23T13:33:01.454Z,8.63
2022-10-23T13:35:28.893Z,8.10
2022-10-23T13:37:56.379Z,9.83
2022-10-23T13:40:28.214Z,9.27
2022-10-23T13:42:57.508Z,8.82
2022-10-23T13:45:26.850Z,11.43
2022-10-23T13:47:54.297Z,8.70
2022-10-23T13:50:21.854Z,9.87
2022-10-23T13:52:49.314Z,6.47
2022-10-23T13:55:25.090Z,12.15
2022-10-23T13:57:52.701Z,9.80
2022-10-23T14:00:23.021Z,14.23
2022-10-23T14:02:51.717Z,11.80
2022-10-23T14:05:19.235Z,6.82
2022-10-23T14:07:46.880Z,7.97
2022-10-23T14:10:14.450Z,9.50
2022-10-23T14:12:43.658Z,7.07
2022-10-23T14:15:12.013Z,11.47
2022-10-23T14:17:39.616Z,7.32
2022-10-23T14:20:08.774Z,8.55
2022-10-23T14:22:36.271Z,7.28
2022-10-23T14:25:06.193Z,8.75
2022-10-23T14:27:33.750Z,9.67
2022-10-23T14:30:01.278Z,10.27
2022-10-23T14:32:28.778Z,13.20
2022-10-23T14:34:56.286Z,11.77
2022-10-23T14:37:26.575Z,11.30
2022-10-23T14:39:53.976Z,15.17
2022-10-23T14:42:21.439Z,13.18
2022-10-23T14:44:50.255Z,14.98
2022-10-23T14:47:21.558Z,14.88
2022-10-23T14:49:56.417Z,13.50
2022-10-23T14:52:24.809Z,17.40
2022-10-23T14:54:53.662Z,19.58
2022-10-23T15:00:05.839Z,18.58
2022-10-23T15:02:33.337Z,20.17
2022-10-23T15:07:41.990Z,21.77
2022-10-23T15:10:10.384Z,18.77
2022-10-23T15:12:39.477Z,18.63
2022-10-23T15:15:08.211Z,19.02
2022-10-23T15:17:37.360Z,16.63
2022-10-23T15:20:09.055Z,15.23
2022-10-23T15:22:36.562Z,15.75
2022-10-23T15:25:04.194Z,14.32
2022-10-23T15:30:18.027Z,15.77
2022-10-23T15:32:45.515Z,16.50
2022-10-23T15:35:12.942Z,14.38
2022-10-23T15:37:40.479Z,16.60
2022-10-23T15:40:08.719Z,15.57
2022-10-23T15:42:36.181Z,15.03
2022-10-23T15:45:03.847Z,14.70
2022-10-23T15:47:31.387Z,13.65
2022-10-23T15:49:58.791Z,14.13
2022-10-23T15:52:26.210Z,15.25
2022-10-23T15:54:54.679Z,16.13
2022-10-23T15:57:22.082Z,16.17
2022-10-23T15:59:51.290Z,16.70
2022-10-23T16:02:18.866Z,14.95
2022-10-23T16:04:46.440Z,12.07
2022-10-23T16:07:13.822Z,16.07
2022-10-23T16:09:41.318Z,16.30
2022-10-23T16:12:08.962Z,12.90
2022-10-23T16:14:36.366Z,13.10
2022-10-23T16:17:04.056Z,13.18
2022-10-23T16:19:31.492Z,11.67
2022-10-23T16:21:58.906Z,11.43
2022-10-23T16:24:26.590Z,11.68
2022-10-23T16:26:56.601Z,10.23
2022-10-23T16:29:25.947Z,10.25
2022-10-23T16:31:54.678Z,10.40
2022-10-23T16:34:22.953Z,11.98
2022-10-23T16:36:50.525Z,9.07
2022-10-23T16:39:28.751Z,9.50
2022-10-23T16:42:34.748Z,9.32
2022-10-23T16:45:11.308Z,12.23
2022-10-23T16:47:38.815Z,12.57
2022-10-23T16:50:06.522Z,8.88
2022-10-23T16:52:39.728Z,9.65
2022-10-23T16:55:08.031Z,10.85
2022-10-23T16:57:36.746Z,9.77
2022-10-23T17:00:09.314Z,9.48
2022-10-23T17:02:37.985Z,9.15
2022-10-23T17:05:06.050Z,11.52
2022-10-23T17:07:33.490Z,14.00
2022-10-23T17:10:00.890Z,9.70
2022-10-23T17:12:28.343Z,11.15
2022-10-23T17:14:55.748Z,12.30
2022-10-23T17:17:23.207Z,10.75
2022-10-23T17:19:50.653Z,12.13
2022-10-23T17:22:18.138Z,10.23
2022-10-23T17:24:48.718Z,10.60
2022-10-23T17:27:19.410Z,10.90
2022-10-23T17:29:49.666Z,11.65
2022-10-23T17:32:17.226Z,11.88
2022-10-23T17:34:44.871Z,13.30
2022-10-23T17:37:14.633Z,11.45
2022-10-23T17:39:42.146Z,11.02
2022-10-23T17:42:09.897Z,10.10
2022-10-23T17:44:37.344Z,14.00
2022-10-23T17:47:05.003Z,12.20
2022-10-23T17:49:32.535Z,12.60
2022-10-23T17:52:00.065Z,12.20
2022-10-23T17:54:27.960Z,9.60
2022-10-23T17:56:55.607Z,13.30
2022-10-23T17:59:23.101Z,13.67
2022-10-23T18:01:51.436Z,14.20
2022-10-23T18:04:21.111Z,9.98
2022-10-23T18:06:52.954Z,14.63
2022-10-23T18:09:21.606Z,11.65
2022-10-23T18:11:50.396Z,13.63
2022-10-23T18:14:19.421Z,9.93
2022-10-23T18:16:47.109Z,9.25
2022-10-23T18:19:18.393Z,11.10
2022-10-23T18:21:46.903Z,11.18
2022-10-23T18:24:14.811Z,11.03
2022-10-23T18:26:43.073Z,10.05
2022-10-23T18:29:15.783Z,10.60
2022-10-23T18:31:43.690Z,12.80
2022-10-23T18:34:20.807Z,10.45
2022-10-23T18:36:49.585Z,9.17
2022-10-23T18:39:22.489Z,9.23
2022-10-23T18:41:56.771Z,9.13
2022-10-23T18:44:27.243Z,9.88
2022-10-23T18:46:57.134Z,9.50
2022-10-23T18:49:27.236Z,9.43
2022-10-23T18:51:54.916Z,9.90
2022-10-23T18:54:22.691Z,9.05
2022-10-23T18:56:50.152Z,8.65
2022-10-23T18:59:19.807Z,8.70
2022-10-23T19:01:47.692Z,14.30
2022-10-23T19:04:18.029Z,9.27
2022-10-23T19:06:50.200Z,8.38
2022-10-23T19:09:18.077Z,13.57
2022-10-23T19:11:45.759Z,10.23
2022-10-23T19:14:13.272Z,7.93
2022-10-23T19:16:43.211Z,8.85
2022-10-23T19:19:23.335Z,8.93
2022-10-23T19:21:51.818Z,7.82
2022-10-23T19:24:35.937Z,8.88
2022-10-23T19:27:03.905Z,8.47
2022-10-23T19:29:32.135Z,7.35
2022-10-23T19:32:00.463Z,8.70
2022-10-23T19:34:28.335Z,8.13
2022-10-23T19:36:56.022Z,10.80
2022-10-23T19:39:25.313Z,9.03
2022-10-23T19:41:53.691Z,8.18
2022-10-23T19:44:21.807Z,7.45
2022-10-23T19:46:49.658Z,7.65
2022-10-23T19:49:18.270Z,9.25
2022-10-23T19:51:50.950Z,7.30
2022-10-23T19:54:20.696Z,8.00
2022-10-23T19:56:48.785Z,8.55
2022-10-23T19:59:16.665Z,9.07
2022-10-23T20:01:47.816Z,9.20
2022-10-23T20:04:18.551Z,7.97
2022-10-23T20:06:46.824Z,8.38
2022-10-23T20:09:14.485Z,7.20
2022-10-23T20:11:43.738Z,8.70
2022-10-23T20:14:12.145Z,8.70
2022-10-23T20:16:40.133Z,8.23
2022-10-23T20:19:10.401Z,8.90
2022-10-23T20:21:40.180Z,7.85
2022-10-23T20:24:08.948Z,7.18
2022-10-23T20:26:44.956Z,10.32
2022-10-23T20:29:12.902Z,7.67
2022-10-23T20:31:40.468Z,7.47
2022-10-23T20:34:08.444Z,8.57
2022-10-23T20:36:45.451Z,7.72
2022-10-23T20:39:18.759Z,8.23
2022-10-23T20:41:48.956Z,8.27
2022-10-23T20:44:18.339Z,8.98
2022-10-23T20:46:46.119Z,10.15
2022-10-23T20:49:14.641Z,7.72
2022-10-23T20:51:42.839Z,8.38
2022-10-23T20:54:10.463Z,8.07
2022-10-23T20:56:39.239Z,8.73
2022-10-23T20:59:12.126Z,8.35
2022-10-23T21:01:41.898Z,7.88
2022-10-23T21:04:14.397Z,9.80
2022-10-23T21:06:57.653Z,8.07
2022-10-23T21:09:31.025Z,11.02
2022-10-23T21:11:58.511Z,8.60
2022-10-23T21:14:27.465Z,11.60
2022-10-23T21:16:54.850Z,7.93
2022-10-23T21:19:22.354Z,8.27
2022-10-23T21:21:49.735Z,9.73
2022-10-23T21:24:17.582Z,10.27
2022-10-23T21:26:45.768Z,7.53
2022-10-23T21:29:18.945Z,7.32
2022-10-23T21:31:53.539Z,9.10
2022-10-23T21:34:21.178Z,9.20
2022-10-23T21:37:11.224Z,7.50
2022-10-23T21:39:36.088Z,7.88
2022-10-23T21:42:06.017Z,7.82
2022-10-23T21:44:33.535Z,8.57
2022-10-23T21:47:01.021Z,8.63
2022-10-23T21:49:28.503Z,9.05
2022-10-23T21:51:55.928Z,9.02
2022-10-23T21:54:23.585Z,8.23
2022-10-23T21:56:54.103Z,8.40
2022-10-23T21:59:25.228Z,7.43
2022-10-23T22:01:54.270Z,8.60
2022-10-23T22:04:22.648Z,8.88
2022-10-23T22:06:50.609Z,9.43
2022-10-23T22:09:20.222Z,9.73
2022-10-23T22:11:50.522Z,7.97
2022-10-23T22:14:18.456Z,9.35
2022-10-23T22:16:46.293Z,7.50
2022-10-23T22:19:15.883Z,9.73
2022-10-23T22:21:43.739Z,11.10
2022-10-23T22:24:11.266Z,7.38
2022-10-23T22:26:45.101Z,8.20
2022-10-23T22:29:15.328Z,7.57
2022-10-23T22:31:45.681Z,7.43
2022-10-23T22:34:47.970Z,8.23
2022-10-23T22:37:13.969Z,7.47
2022-10-23T22:39:41.802Z,10.65
2022-10-23T22:42:09.733Z,7.45
2022-10-23T22:44:37.165Z,9.20
2022-10-23T22:47:04.772Z,8.57
2022-10-23T22:49:32.257Z,8.18
2022-10-23T22:52:02.744Z,9.35
2022-10-23T22:54:31.668Z,9.10
2022-10-23T22:56:59.262Z,7.78
2022-10-23T22:59:26.792Z,10.20
2022-10-23T23:01:54.801Z,7.07
2022-10-23T23:04:39.001Z,9.23
2022-10-23T23:07:13.109Z,9.48
2022-10-23T23:09:42.837Z,8.23
2022-10-23T23:12:13.107Z,9.67
2022-10-23T23:14:41.188Z,8.52
2022-10-23T23:17:12.152Z,9.98
2022-10-23T23:19:39.905Z,8.25
2022-10-23T23:22:07.363Z,9.32
2022-10-23T23:24:35.071Z,8.20
2022-10-23T23:27:02.609Z,9.52
2022-10-23T23:29:32.754Z,10.23
2022-10-23T23:32:00.192Z,8.32
2022-10-23T23:34:29.033Z,8.35
2022-10-23T23:36:56.477Z,8.47
2022-10-23T23:39:24.112Z,8.50
2022-10-23T23:41:51.563Z,8.32
2022-10-23T23:44:18.954Z,8.82
2022-10-23T23:46:46.362Z,10.00
2022-10-23T23:49:13.828Z,9.60
2022-10-23T23:51:41.346Z,10.25
2022-10-23T23:54:08.843Z,8.65
2022-10-23T23:56:36.293Z,9.27
2022-10-23T23:59:03.797Z,8.98
